• Join FlightAware (Why Join?)
  • Login
  • US Flag 
12:51AM EDT


 

Airport Tracker/Info


-or-


 

Live Flight TrackerFlight Track Log ✈ DAL1763 ✈ 16-Aug-2013 ✈ KDCA - KMSP

Flight Track Log - Related Links

Times and Time Zones

All times are in EDT time to prevent confusion due to time zone crossing. See the DAL1763 flight status page for this flight to view local times or setup timezone preferences in your user account.

Time Position Orientation Groundspeed Altitude Reporting Facility
EDT Latitude Longitude Course Direction KTS MPH feet Rate Location/Type
02:41PM 38.8000 -77.0333 322° Northwest 192 221 1,800  Level Potomac TRACON
02:42PM 38.7500 -77.0333 180° South 273 314 4,200 1,680 Climbing Potomac TRACON
02:43PM 38.7167 -77.1167 243° Southwest 281 323 5,000 780 Climbing Potomac TRACON
02:44PM 39.1208 -77.2854 339° North  Level FlightAware Approximate
02:44PM 38.7167 -77.2167 270° West 286 329 5,800  Level Potomac TRACON
02:45PM 39.2103 -77.3707 326° Northwest  Level FlightAware Approximate
02:45PM 38.7833 -77.2833 322° Northwest 288 331 9,100  Level Potomac TRACON
02:46PM 39.3061 -77.4515 328° Northwest  Level FlightAware Approximate
02:46PM 38.8500 -77.3333 330° Northwest 311 358 11,200  Level Potomac TRACON
02:47PM 39.4009 -77.5342 322° Northwest  Level FlightAware Approximate
02:47PM 38.9333 -77.3833 335° Northwest 355 409 12,300  Level Potomac TRACON
02:50PM 39.1603 -77.5350 333° Northwest 422 486 16,900 1,620 Climbing Washington Center
02:51PM 39.2569 -77.6181 326° Northwest 417 480 17,900 1,440 Climbing Washington Center
02:52PM 39.3556 -77.7039 326° Northwest 422 486 19,900 1,800 Climbing Washington Center
02:53PM 39.4561 -77.7903 326° Northwest 428 493 21,500 1,620 Climbing Washington Center
02:55PM 39.6039 -78.0772 304° West 433 498 24,900 1,680 Climbing Cleveland Center
02:56PM 39.6486 -78.2239 292° West 438 504 26,700 1,800 Climbing Cleveland Center
02:57PM 39.6914 -78.3736 290° West 438 504 28,600 1,620 Climbing Cleveland Center
02:58PM 39.7336 -78.5153 291° West 438 504 30,000 660 Climbing Cleveland Center
02:59PM 39.7736 -78.6572 290° West 427 491 30,000  Level Cleveland Center
03:00PM 39.8092 -78.7886 289° West 427 491 30,000  Level Cleveland Center
03:01PM 39.8489 -78.9308 290° West 422 486 30,000  Level Cleveland Center
03:02PM 39.8944 -79.0733 293° West 427 491 30,000  Level Cleveland Center
03:03PM 39.9339 -79.2131 290° West 427 491 30,000  Level Cleveland Center
03:04PM 39.9792 -79.3586 292° West 427 491 30,000  Level Cleveland Center
03:05PM 40.0431 -79.4875 303° West 427 491 30,000  Level Cleveland Center
03:06PM 40.1089 -79.6194 303° West 427 491 30,000  Level Cleveland Center
03:07PM 40.1744 -79.7461 304° West 427 491 30,000  Level Cleveland Center
03:08PM 40.2400 -79.8786 303° West 432 497 30,000  Level Cleveland Center
03:09PM 40.3075 -80.0086 304° West 432 497 30,000  Level Cleveland Center
03:10PM 40.3706 -80.1417 302° West 432 497 30,000  Level Cleveland Center
03:11PM 40.4378 -80.2694 305° West 432 497 30,000  Level Cleveland Center
03:12PM 40.5111 -80.4111 304° West 439 505 30,000  Level Cleveland Center
03:13PM 40.5736 -80.5394 303° West 439 505 30,000  Level Cleveland Center
03:14PM 40.6361 -80.6733 302° West 434 499 30,000  Level Cleveland Center
03:15PM 40.7047 -80.7994 306° West 427 491 30,000  Level Cleveland Center
03:16PM 40.7669 -80.9286 302° West 427 491 30,000  Level Cleveland Center
03:17PM 40.8311 -81.0633 302° West 433 498 30,000  Level Cleveland Center
03:18PM 40.8869 -81.1983 299° West 427 491 30,000  Level Cleveland Center
03:19PM 40.9319 -81.3253 295° West 421 484 30,000  Level Cleveland Center
03:20PM 40.9831 -81.4689 295° West 426 490 30,000  Level Cleveland Center
03:21PM 41.0319 -81.6069 295° West 421 484 30,000  Level Cleveland Center
03:22PM 41.0806 -81.7511 294° West 421 484 30,000  Level Cleveland Center
03:23PM 41.1394 -81.9039 297° West 421 484 30,000  Level Cleveland Center
03:24PM 41.1897 -82.0456 295° West 421 484 30,000  Level Cleveland Center
03:25PM 41.2336 -82.1900 292° West 426 490 30,000  Level Cleveland Center
03:26PM 41.2858 -82.3322 296° West 431 496 30,000  Level Cleveland Center
03:27PM 41.3336 -82.4775 294° West 424 488 30,000  Level Cleveland Center
03:28PM 41.3831 -82.6200 295° West 424 488 30,000  Level Cleveland Center
03:29PM 41.4267 -82.7514 294° West 424 488 30,000 360 Level Cleveland Center
03:30PM 41.4758 -82.9000 294° West 424 488 30,800 960 Climbing Cleveland Center
03:31PM 41.5250 -83.0433 295° West 424 488 32,000 600 Climbing Cleveland Center
03:32PM 41.5756 -83.2008 293° West 424 488 32,000  Level Cleveland Center
03:33PM 41.6244 -83.3444 295° West 424 488 32,000  Level Cleveland Center
03:34PM 41.6728 -83.4911 294° West 424 488 32,000  Level Cleveland Center
03:35PM 41.7211 -83.6378 294° West 424 488 32,000  Level Cleveland Center
03:36PM 41.7672 -83.7850 293° West 424 488 32,000  Level Cleveland Center
03:37PM 41.8153 -83.9294 294° West 424 488 32,000  Level Cleveland Center
03:38PM 41.8631 -84.0769 294° West 424 488 32,000  Level Cleveland Center
03:39PM 41.9106 -84.2219 294° West 424 488 32,000  Level Cleveland Center
03:40PM 41.9650 -84.3811 295° West 425 489 32,000  Level Chicago Center
03:41PM 42.0108 -84.5275 293° West 425 489 32,000  Level Chicago Center
03:42PM 42.0569 -84.6753 293° West 428 493 32,000  Level Chicago Center
03:43PM 42.1033 -84.8219 293° West 427 491 32,000  Level Chicago Center
03:44PM 42.1581 -85.0003 293° West 430 495 32,000  Level Chicago Center
03:45PM 42.2036 -85.1478 293° West 428 493 32,000  Level Chicago Center
03:46PM 42.2494 -85.2950 293° West 427 491 32,000  Level Chicago Center
03:47PM 42.2947 -85.4436 292° West 428 493 32,000  Level Chicago Center
03:48PM 42.3397 -85.5928 292° West 428 493 32,000  Level Chicago Center
03:49PM 42.3858 -85.7397 293° West 425 489 32,000  Level Chicago Center
03:50PM 42.4403 -85.9206 292° West 429 494 32,000  Level Chicago Center
03:51PM 42.4953 -86.0656 297° West 435 501 32,000  Level Chicago Center
03:52PM 42.5553 -86.2053 300° West 428 493 32,000  Level Chicago Center
03:53PM 42.6169 -86.3489 300° West 436 502 32,000  Level Chicago Center
03:54PM 42.6753 -86.4856 300° West 421 484 32,000  Level Chicago Center
03:55PM 42.7358 -86.6242 301° West 423 487 32,000  Level Chicago Center
03:56PM 42.7953 -86.7647 300° West 428 493 32,000  Level Chicago Center
03:57PM 42.8650 -86.9317 300° West 423 487 32,000  Level Chicago Center
03:58PM 42.9236 -87.0714 300° West 425 489 32,000  Level Chicago Center
03:59PM 42.9822 -87.2111 300° West 425 489 32,000  Level Chicago Center
04:01PM 43.0414 -87.3522 300° West 428 493 32,000  Level Chicago Center
04:02PM 43.1075 -87.5111 300° West 426 490 32,000  Level Chicago Center
04:03PM 43.1667 -87.6550 299° West 433 498 32,000  Level Chicago Center
04:04PM 43.2261 -87.7972 300° West 430 495 32,000  Level Chicago Center
04:05PM 43.2839 -87.9400 299° West 428 493 32,000  Level Chicago Center
04:06PM 43.3422 -88.0833 299° West 427 491 32,000  Level Chicago Center
04:07PM 43.4094 -88.2522 299° West 432 497 32,000  Level Chicago Center
04:08PM 43.4619 -88.3847 299° West 435 501 32,000  Level Chicago Center
04:09PM 43.5269 -88.5450 299° West 444 511 32,000  Level Chicago Center
04:10PM 43.5906 -88.7103 298° West 436 502 32,000  Level Chicago Center
04:11PM 43.6481 -88.8567 299° West 437 503 32,000  Level Chicago Center
04:12PM 43.7056 -89.0044 298° West 438 504 32,000  Level Chicago Center
04:13PM 43.7642 -89.1536 299° West 441 507 32,000  Level Chicago Center
04:14PM 43.8225 -89.3025 299° West 441 507 32,000  Level Chicago Center
04:15PM 43.8903 -89.4786 298° West 443 510 32,000  Level Chicago Center
04:16PM 43.9503 -89.6261 300° West 441 507 32,000  Level Chicago Center
04:17PM 44.0147 -89.7736 301° West 446 513 32,000  Level Chicago Center
04:18PM 44.0778 -89.9197 301° West 443 510 32,000  Level Chicago Center
04:19PM 44.1397 -90.0681 300° West 442 509 32,000  Level Chicago Center
04:20PM 44.1811 -90.1669 300° West 444 511 32,000  Level Minneapolis Center
04:21PM 44.2431 -90.3161 300° West 444 511 32,000  Level Minneapolis Center
04:22PM 44.3058 -90.4633 301° West 443 510 32,000  Level Minneapolis Center
04:23PM 44.3672 -90.6111 300° West 442 509 32,000  Level Minneapolis Center
04:24PM 44.4411 -90.7872 300° West 446 513 32,000  Level Minneapolis Center
04:25PM 44.4956 -90.9181 300° West 449 517 32,000  Level Minneapolis Center
04:26PM 44.5694 -91.0975 300° West 446 513 32,000 -780 Level Minneapolis Center
04:27PM 44.6308 -91.2467 300° West 445 512 30,500 -2,280 Descending Minneapolis Center
04:28PM 44.6922 -91.3981 300° West 446 513 27,300 -2,820 Descending Minneapolis Center
04:29PM 44.7533 -91.5458 300° West 443 510 24,700 -2,520 Descending Minneapolis Center
04:30PM 44.8103 -91.6892 299° West 429 494 22,200 -2,760 Descending Minneapolis Center
04:31PM 44.8769 -91.8544 300° West 412 474 19,100 -2,760 Descending Minneapolis Center
04:32PM 44.9308 -91.9917 299° West 400 460 16,500 -2,460 Descending Minneapolis Center
04:33PM 44.9828 -92.1228 299° West 388 447 14,100 -2,280 Descending Minneapolis Center
04:34PM 45.0311 -92.2475 299° West 368 423 11,800 -1,500 Descending Minneapolis Center
04:35PM 45.0336 -92.3806 272° West 348 400 11,000 -420 Descending Minneapolis Center
04:36PM 45.0156 -92.4967 258° West 304 350 11,000  Level Minneapolis Center
04:37PM 44.9903 -92.6553 257° West 354 407 11,000  Level Minneapolis Center
04:38PM 44.9692 -92.7917 258° West 357 411 11,000 -480 Level Minneapolis Center
04:39PM 44.9483 -92.9181 257° West 336 387 10,100 -1,020 Descending Minneapolis Center
04:40PM 44.9308 -93.0267 257° West 293 337 8,900 -1,080 Descending Minneapolis Center
04:41PM 44.9492 -93.1261 285° West 283 326 7,900 -1,500 Descending Minneapolis Center
04:42PM 44.9978 -93.2353 302° West 275 316 5,900 -1,920 Descending Minneapolis Center
04:44PM 45.0381 -93.3186 304° West 262 302 4,000 -960 Descending Minneapolis Center
04:45PM 45.0278 -93.3908 259° West 228 262 4,000 -360 Level Minneapolis Center
04:46PM 44.9700 -93.3589 159° South 228 262 3,300 -780 Descending Minneapolis Center
04:47PM 44.9275 -93.3019 137° Southeast 215 247 2,500 -1,080 Descending Minneapolis Center
04:48PM 44.8981 -93.2328 121° Southeast 167 192 1,100 -1,380 Descending Minneapolis Center